createdAt,value
2023-04-25T00:02:33.151Z,97.00
2023-04-25T00:05:38.412Z,97.00
2023-04-25T00:08:40.935Z,97.20
2023-04-25T00:11:43.102Z,97.10
2023-04-25T00:14:46.745Z,97.00
2023-04-25T00:17:49.106Z,97.10
2023-04-25T00:20:51.564Z,97.30
2023-04-25T00:23:54.720Z,97.40
2023-04-25T00:26:56.984Z,97.50
2023-04-25T00:29:59.448Z,97.50
2023-04-25T00:33:01.829Z,97.40
2023-04-25T00:36:04.091Z,97.30
2023-04-25T00:39:06.245Z,97.30
2023-04-25T00:42:09.330Z,97.30
2023-04-25T00:45:15.654Z,97.30
2023-04-25T00:48:19.056Z,97.20
2023-04-25T00:51:23.055Z,97.10
2023-04-25T00:54:25.867Z,96.90
2023-04-25T00:57:28.160Z,96.70
2023-04-25T01:00:31.310Z,96.70
2023-04-25T01:03:37.230Z,96.70
2023-04-25T01:06:39.732Z,97.00
2023-04-25T01:09:42.546Z,96.90
2023-04-25T01:12:44.762Z,97.00
2023-04-25T01:15:46.988Z,96.90
2023-04-25T01:18:49.848Z,96.70
2023-04-25T01:21:52.026Z,96.30
2023-04-25T01:24:54.868Z,96.20
2023-04-25T01:27:57.936Z,96.20
2023-04-25T01:31:00.831Z,96.10
2023-04-25T01:34:03.055Z,96.10
2023-04-25T01:37:05.269Z,96.30
2023-04-25T01:40:09.736Z,96.40
2023-04-25T01:43:13.955Z,96.60
2023-04-25T01:46:16.478Z,96.20
2023-04-25T01:49:18.849Z,96.10
2023-04-25T01:52:21.126Z,95.90
2023-04-25T01:55:23.220Z,96.30
2023-04-25T01:58:26.334Z,96.00
2023-04-25T02:01:28.428Z,96.10
2023-04-25T02:04:32.118Z,96.20
2023-04-25T02:07:34.349Z,96.10
2023-04-25T02:10:36.864Z,96.00
2023-04-25T02:13:39.297Z,95.90
2023-04-25T02:16:41.559Z,95.80
2023-04-25T02:19:43.826Z,95.90
2023-04-25T02:22:46.031Z,95.70
2023-04-25T02:25:48.230Z,95.80
2023-04-25T02:33:06.623Z,95.90
2023-04-25T02:36:08.935Z,95.90
2023-04-25T02:39:11.638Z,95.90
2023-04-25T02:42:13.899Z,95.90
2023-04-25T02:45:16.278Z,96.00
2023-04-25T02:48:19.569Z,96.00
2023-04-25T02:51:21.745Z,95.90
2023-04-25T02:54:23.847Z,95.90
2023-04-25T02:57:26.368Z,95.70
2023-04-25T03:00:28.677Z,95.50
2023-04-25T03:03:31.310Z,95.50
2023-04-25T03:06:34.491Z,95.50
2023-04-25T03:09:36.654Z,95.30
2023-04-25T03:12:38.877Z,95.50
2023-04-25T03:15:41.047Z,95.60
2023-04-25T03:18:43.161Z,95.70
2023-04-25T03:21:45.528Z,95.50
2023-04-25T03:24:48.285Z,95.60
2023-04-25T03:27:50.668Z,95.80
2023-04-25T03:30:52.822Z,95.80
2023-04-25T03:34:11.154Z,95.70
2023-04-25T03:37:13.303Z,95.90
2023-04-25T03:40:15.553Z,95.90
2023-04-25T03:43:17.851Z,95.90
2023-04-25T03:46:20.100Z,95.90
2023-04-25T03:49:22.276Z,95.80
2023-04-25T03:52:24.379Z,95.90
2023-04-25T03:55:26.427Z,96.00
2023-04-25T03:58:28.545Z,96.00
2023-04-25T04:01:30.755Z,96.20
2023-04-25T04:04:33.395Z,96.30
2023-04-25T04:07:40.828Z,96.50
2023-04-25T04:10:42.901Z,96.20
2023-04-25T04:13:44.987Z,96.70
2023-04-25T04:16:47.139Z,97.20
2023-04-25T04:19:49.314Z,97.00
2023-04-25T04:22:51.479Z,97.40
2023-04-25T04:25:53.675Z,97.70
2023-04-25T04:28:56.234Z,97.80
2023-04-25T04:31:58.492Z,98.10
2023-04-25T04:35:08.177Z,98.30
2023-04-25T04:38:12.416Z,98.50
2023-04-25T04:41:14.589Z,98.50
2023-04-25T04:44:16.682Z,98.60
2023-04-25T04:47:18.902Z,98.70
2023-04-25T04:50:21.222Z,98.80
2023-04-25T04:53:23.662Z,99.10
2023-04-25T04:56:26.598Z,99.60
2023-04-25T04:59:28.680Z,99.90
2023-04-25T05:02:30.925Z,99.90
2023-04-25T05:05:33.213Z,99.90
2023-04-25T05:08:35.446Z,99.90
2023-04-25T05:11:37.627Z,99.90
2023-04-25T05:14:39.790Z,99.90
2023-04-25T05:17:42.009Z,99.90
2023-04-25T05:20:44.152Z,99.90
2023-04-25T05:23:46.303Z,99.90
2023-04-25T05:26:48.587Z,99.90
2023-04-25T05:29:50.710Z,99.90
2023-04-25T05:32:52.899Z,99.90
2023-04-25T05:35:55.066Z,99.90
2023-04-25T05:38:57.242Z,99.90
2023-04-25T05:41:59.466Z,99.90
2023-04-25T05:45:01.873Z,99.90
2023-04-25T05:48:04.360Z,99.90
2023-04-25T05:51:07.529Z,99.90
2023-04-25T05:54:09.792Z,99.90
2023-04-25T05:57:27.351Z,99.90
2023-04-25T06:00:30.090Z,99.90
2023-04-25T06:03:32.606Z,99.90
2023-04-25T06:06:35.040Z,99.90
2023-04-25T06:09:37.146Z,99.90
2023-04-25T06:12:39.777Z,99.90
2023-04-25T06:15:42.048Z,99.90
2023-04-25T06:18:44.246Z,99.90
2023-04-25T06:21:46.488Z,99.90
2023-04-25T06:24:48.680Z,99.90
2023-04-25T06:27:50.851Z,99.90
2023-04-25T06:30:52.945Z,99.30
2023-04-25T06:33:55.953Z,98.40
2023-04-25T06:36:58.172Z,97.40
2023-04-25T06:40:00.373Z,95.80
2023-04-25T06:43:05.922Z,94.90
2023-04-25T06:46:08.467Z,93.70
2023-04-25T06:49:10.580Z,93.00
2023-04-25T06:52:13.600Z,91.90
2023-04-25T06:55:16.048Z,91.50
2023-04-25T06:58:18.678Z,90.50
2023-04-25T07:01:21.090Z,89.50
2023-04-25T07:04:23.712Z,88.10
2023-04-25T07:07:26.075Z,86.00
2023-04-25T07:10:28.217Z,84.80
2023-04-25T07:13:31.379Z,82.20
2023-04-25T07:16:37.753Z,81.00
2023-04-25T07:19:43.225Z,80.20
2023-04-25T07:22:45.364Z,78.80
2023-04-25T07:25:48.092Z,78.00
2023-04-25T07:28:52.622Z,76.40
2023-04-25T07:31:55.477Z,74.80
2023-04-25T07:34:57.771Z,74.10
2023-04-25T07:38:00.463Z,73.30
2023-04-25T07:41:03.496Z,73.60
2023-04-25T07:44:05.976Z,73.40
2023-04-25T07:47:08.629Z,71.20
2023-04-25T07:50:12.179Z,70.00
2023-04-25T07:53:14.422Z,69.40
2023-04-25T07:56:16.558Z,68.20
2023-04-25T07:59:18.716Z,66.50
2023-04-25T08:02:21.165Z,68.10
2023-04-25T08:05:24.473Z,67.30
2023-04-25T08:08:26.998Z,66.70
2023-04-25T08:11:29.110Z,66.60
2023-04-25T08:14:36.885Z,66.40
2023-04-25T08:17:39.383Z,66.30
2023-04-25T08:20:41.949Z,65.20
2023-04-25T08:23:44.102Z,65.50
2023-04-25T08:26:46.305Z,66.50
2023-04-25T08:29:48.907Z,66.90
2023-04-25T08:32:51.119Z,66.50
2023-04-25T08:35:53.401Z,67.50
2023-04-25T08:38:56.432Z,65.50
2023-04-25T08:41:58.856Z,64.60
2023-04-25T08:45:04.501Z,63.50
2023-04-25T08:48:17.086Z,61.60
2023-04-25T08:51:29.159Z,61.30
2023-04-25T08:54:34.753Z,60.20
2023-04-25T08:57:39.337Z,59.20
2023-04-25T09:00:41.587Z,58.20
2023-04-25T09:03:46.111Z,57.50
2023-04-25T09:06:49.414Z,57.50
2023-04-25T09:09:51.597Z,56.90
2023-04-25T09:13:06.732Z,56.20
2023-04-25T09:16:08.945Z,56.40
2023-04-25T09:19:38.838Z,56.30
2023-04-25T09:22:41.952Z,55.70
2023-04-25T09:25:44.523Z,56.10
2023-04-25T09:28:49.084Z,53.70
2023-04-25T09:31:51.257Z,54.10
2023-04-25T09:34:55.666Z,52.60
2023-04-25T09:37:57.926Z,52.80
2023-04-25T09:41:01.948Z,51.70
2023-04-25T09:44:04.778Z,50.00
2023-04-25T09:47:17.695Z,52.20
2023-04-25T09:50:20.662Z,50.60
2023-04-25T09:53:22.906Z,50.10
2023-04-25T09:56:29.564Z,50.40
2023-04-25T09:59:36.159Z,48.50
2023-04-25T10:02:42.207Z,49.40
2023-04-25T10:05:45.588Z,50.20
2023-04-25T10:08:49.512Z,49.30
2023-04-25T10:11:51.717Z,49.50
2023-04-25T10:14:56.333Z,47.40
2023-04-25T10:17:59.865Z,46.90
2023-04-25T10:21:05.805Z,48.00
2023-04-25T10:24:08.292Z,47.30
2023-04-25T10:27:10.952Z,47.90
2023-04-25T10:30:17.064Z,47.30
2023-04-25T10:33:19.797Z,48.10
2023-04-25T10:36:23.772Z,46.40
2023-04-25T10:39:28.651Z,47.20
2023-04-25T10:42:31.188Z,47.50
2023-04-25T10:45:53.037Z,48.20
2023-04-25T10:48:57.693Z,45.60
2023-04-25T10:52:16.939Z,46.80
2023-04-25T10:55:19.224Z,47.20
2023-04-25T10:58:23.940Z,45.80
2023-04-25T11:01:26.822Z,47.90
2023-04-25T11:04:35.338Z,47.00
2023-04-25T11:11:03.971Z,45.30
2023-04-25T11:14:06.263Z,45.00
2023-04-25T11:17:08.762Z,46.20
2023-04-25T11:20:12.736Z,48.50
2023-04-25T11:23:14.897Z,48.30
2023-04-25T11:26:17.633Z,45.80
2023-04-25T11:29:22.959Z,47.40
2023-04-25T11:32:25.629Z,46.60
2023-04-25T11:35:29.839Z,46.70
2023-04-25T11:38:32.018Z,48.00
2023-04-25T11:41:34.130Z,51.40
2023-04-25T11:44:36.521Z,53.90
2023-04-25T11:47:39.249Z,54.10
2023-04-25T11:50:42.330Z,55.20
2023-04-25T11:53:46.124Z,56.80
2023-04-25T11:56:48.295Z,55.50
2023-04-25T11:59:50.458Z,56.80
2023-04-25T12:02:55.452Z,56.10
2023-04-25T12:06:05.271Z,56.80
2023-04-25T12:09:11.738Z,58.70
2023-04-25T12:12:13.847Z,58.60
2023-04-25T12:15:18.525Z,59.50
2023-04-25T12:18:29.003Z,57.00
2023-04-25T12:21:31.536Z,55.30
2023-04-25T12:24:38.660Z,55.80
2023-04-25T12:27:45.152Z,58.00
2023-04-25T12:31:05.520Z,57.90
2023-04-25T12:34:08.369Z,57.40
2023-04-25T12:37:10.849Z,58.70
2023-04-25T12:40:13.453Z,60.20
2023-04-25T12:43:15.597Z,60.00
2023-04-25T12:46:18.801Z,60.10
2023-04-25T12:49:21.285Z,60.20
2023-04-25T12:52:23.426Z,60.60
2023-04-25T12:55:25.575Z,60.30
2023-04-25T12:58:28.188Z,60.00
2023-04-25T13:01:30.397Z,59.40
2023-04-25T13:04:32.886Z,63.80
2023-04-25T13:07:36.278Z,66.20
2023-04-25T13:10:40.570Z,67.50
2023-04-25T13:13:43.513Z,69.30
2023-04-25T13:16:45.913Z,68.90
2023-04-25T13:19:48.084Z,69.80
2023-04-25T13:22:50.406Z,70.10
2023-04-25T13:25:52.720Z,70.10
2023-04-25T13:28:54.916Z,70.80
2023-04-25T13:31:57.302Z,70.70
2023-04-25T13:34:59.495Z,69.30
2023-04-25T13:38:01.940Z,68.70
2023-04-25T13:41:04.423Z,69.10
2023-04-25T13:44:07.528Z,69.80
2023-04-25T13:47:09.862Z,70.70
2023-04-25T13:50:12.266Z,71.80
2023-04-25T13:53:14.499Z,72.00
2023-04-25T13:56:16.804Z,72.90
2023-04-25T13:59:18.976Z,72.50
2023-04-25T14:02:21.159Z,72.50
2023-04-25T14:05:23.341Z,72.40
2023-04-25T14:08:25.507Z,73.10
2023-04-25T14:11:27.726Z,71.50
2023-04-25T14:14:29.904Z,71.60
2023-04-25T14:17:32.054Z,70.40
2023-04-25T14:20:38.574Z,69.50
2023-04-25T14:23:41.653Z,69.80
2023-04-25T14:26:44.597Z,69.60
2023-04-25T14:29:47.530Z,69.80
2023-04-25T14:32:51.088Z,70.20
2023-04-25T14:35:54.221Z,70.20
2023-04-25T14:38:56.561Z,70.50
2023-04-25T14:41:59.153Z,70.90
2023-04-25T14:45:01.278Z,70.60
2023-04-25T14:48:03.945Z,70.80
2023-04-25T14:51:06.236Z,71.50
2023-04-25T14:54:08.968Z,70.30
2023-04-25T14:57:11.501Z,70.30
2023-04-25T15:00:17.537Z,70.50
2023-04-25T15:03:20.042Z,69.80
2023-04-25T15:06:22.550Z,70.10
2023-04-25T15:09:25.246Z,69.90
2023-04-25T15:12:29.355Z,70.10
2023-04-25T15:15:31.637Z,70.10
2023-04-25T15:18:33.960Z,70.10
2023-04-25T15:21:36.854Z,70.40
2023-04-25T15:24:39.073Z,71.70
2023-04-25T15:27:43.021Z,72.60
2023-04-25T15:30:46.497Z,71.70
2023-04-25T15:33:49.825Z,71.50
2023-04-25T15:36:52.389Z,71.50
2023-04-25T15:40:02.553Z,70.70
2023-04-25T15:43:04.843Z,70.40
2023-04-25T15:46:07.367Z,70.10
2023-04-25T15:49:09.634Z,70.20
2023-04-25T15:52:11.908Z,70.30
2023-04-25T15:55:15.049Z,70.20
2023-04-25T15:58:17.187Z,69.80
2023-04-25T16:01:19.415Z,69.00
2023-04-25T16:04:22.110Z,69.20
2023-04-25T16:07:24.379Z,68.30
2023-04-25T16:10:26.700Z,69.10
2023-04-25T16:13:30.268Z,68.40
2023-04-25T16:16:32.441Z,68.10
2023-04-25T16:19:35.969Z,67.70
2023-04-25T16:22:40.447Z,67.60
2023-04-25T16:25:43.253Z,68.20
2023-04-25T16:28:45.480Z,66.80
2023-04-25T16:31:47.791Z,65.30
2023-04-25T16:34:50.794Z,64.00
2023-04-25T16:37:53.004Z,62.90
2023-04-25T16:40:55.198Z,63.00
2023-04-25T16:44:00.631Z,63.40
2023-04-25T16:47:04.191Z,62.50
2023-04-25T16:50:07.241Z,63.50
2023-04-25T16:53:09.434Z,65.10
2023-04-25T16:56:11.733Z,65.90
2023-04-25T16:59:14.005Z,66.20
2023-04-25T17:02:16.651Z,66.80
2023-04-25T17:05:18.994Z,67.70
2023-04-25T17:08:21.416Z,68.10
2023-04-25T17:11:23.656Z,68.80
2023-04-25T17:14:27.316Z,68.90
2023-04-25T17:17:29.533Z,69.30
2023-04-25T17:20:32.875Z,68.50
2023-04-25T17:23:35.193Z,68.40
2023-04-25T17:26:37.418Z,67.90
2023-04-25T17:29:39.525Z,68.40
2023-04-25T17:32:41.801Z,68.50
2023-04-25T17:35:43.953Z,68.90
2023-04-25T17:38:47.193Z,68.90
2023-04-25T17:41:49.413Z,68.90
2023-04-25T17:44:51.603Z,69.00
2023-04-25T17:47:53.677Z,66.90
2023-04-25T17:50:56.373Z,65.40
2023-04-25T17:53:58.529Z,63.10
2023-04-25T17:57:01.209Z,58.60
2023-04-25T18:00:07.889Z,54.90
2023-04-25T18:03:10.158Z,52.40
2023-04-25T18:06:12.410Z,52.40
2023-04-25T18:09:17.524Z,52.00
2023-04-25T18:12:20.272Z,51.30
2023-04-25T18:15:23.360Z,51.30
2023-04-25T18:18:25.782Z,50.70
2023-04-25T18:21:28.767Z,46.80
2023-04-25T18:24:31.021Z,45.10
2023-04-25T18:27:33.165Z,47.30
2023-04-25T18:30:35.607Z,46.70
2023-04-25T18:33:37.728Z,49.80
2023-04-25T18:36:40.954Z,53.70
2023-04-25T18:39:43.168Z,59.10
2023-04-25T18:42:46.050Z,58.40
2023-04-25T18:45:48.364Z,58.40
2023-04-25T18:48:53.794Z,60.70
2023-04-25T18:51:57.556Z,63.00
2023-04-25T18:54:59.738Z,64.00
2023-04-25T18:58:02.050Z,65.40
2023-04-25T19:01:04.975Z,66.00
2023-04-25T19:04:07.419Z,66.70
2023-04-25T19:07:09.711Z,67.50
2023-04-25T19:10:12.112Z,68.80
2023-04-25T19:13:14.494Z,68.40
2023-04-25T19:16:17.732Z,68.70
2023-04-25T19:19:21.118Z,69.20
2023-04-25T19:22:23.332Z,69.70
2023-04-25T19:25:26.386Z,70.70
2023-04-25T19:28:30.675Z,71.50
2023-04-25T19:31:37.730Z,72.50
2023-04-25T19:34:40.747Z,73.40
2023-04-25T19:37:46.790Z,74.30
2023-04-25T19:40:49.428Z,76.20
2023-04-25T19:43:51.824Z,77.30
2023-04-25T19:46:54.196Z,77.10
2023-04-25T19:49:56.469Z,77.70
2023-04-25T19:52:58.872Z,78.50
2023-04-25T19:56:01.648Z,79.40
2023-04-25T19:59:03.878Z,79.00
2023-04-25T20:02:09.172Z,79.40
2023-04-25T20:05:14.507Z,80.20
2023-04-25T20:08:16.815Z,80.50
2023-04-25T20:11:19.053Z,81.10
2023-04-25T20:14:21.978Z,80.30
2023-04-25T20:17:24.452Z,80.10
2023-04-25T20:20:26.762Z,80.90
2023-04-25T20:23:29.078Z,80.40
2023-04-25T20:26:34.343Z,80.40
2023-04-25T20:29:37.003Z,80.00
2023-04-25T20:32:39.453Z,79.60
2023-04-25T20:35:42.689Z,79.70
2023-04-25T20:38:44.834Z,80.20
2023-04-25T20:41:47.195Z,80.30
2023-04-25T20:44:51.154Z,80.80
2023-04-25T20:47:53.463Z,80.10
2023-04-25T20:50:55.739Z,80.50
2023-04-25T20:53:57.911Z,79.50
2023-04-25T20:57:00.214Z,79.60
2023-04-25T21:00:05.382Z,81.10
2023-04-25T21:03:07.981Z,81.80
2023-04-25T21:06:10.263Z,81.90
2023-04-25T21:09:14.377Z,82.70
2023-04-25T21:12:17.402Z,83.80
2023-04-25T21:15:22.502Z,83.50
2023-04-25T21:18:24.782Z,83.30
2023-04-25T21:21:27.543Z,84.00
2023-04-25T21:24:31.349Z,83.70
2023-04-25T21:27:33.901Z,83.70
2023-04-25T21:30:36.231Z,83.70
2023-04-25T21:33:38.662Z,84.00
2023-04-25T21:36:41.527Z,83.60
2023-04-25T21:39:43.654Z,83.10
2023-04-25T21:42:50.224Z,83.50
2023-04-25T21:46:15.235Z,83.20
2023-04-25T21:49:16.004Z,83.70
2023-04-25T21:52:18.545Z,83.40
2023-04-25T21:55:22.194Z,83.50
2023-04-25T21:58:24.540Z,83.80
2023-04-25T22:01:27.816Z,84.00
2023-04-25T22:04:30.128Z,83.90
2023-04-25T22:07:32.470Z,83.40
2023-04-25T22:10:35.672Z,83.80
2023-04-25T22:13:37.761Z,84.40
2023-04-25T22:16:40.350Z,83.90
2023-04-25T22:19:43.346Z,84.40
2023-04-25T22:22:45.616Z,84.70
2023-04-25T22:25:47.927Z,84.30
2023-04-25T22:28:51.754Z,84.30
2023-04-25T22:31:54.491Z,84.60
2023-04-25T22:34:56.869Z,84.20
2023-04-25T22:37:59.097Z,84.00
2023-04-25T22:41:01.701Z,83.50
2023-04-25T22:44:04.077Z,83.80
2023-04-25T22:47:06.379Z,83.60
2023-04-25T22:50:13.961Z,82.90
2023-04-25T22:53:16.700Z,82.60
2023-04-25T22:56:18.833Z,82.80
2023-04-25T22:59:21.059Z,82.50
2023-04-25T23:02:25.280Z,82.70
2023-04-25T23:05:27.656Z,82.40
2023-04-25T23:08:29.926Z,82.60
2023-04-25T23:11:32.125Z,82.50
2023-04-25T23:14:34.354Z,82.50
2023-04-25T23:17:37.415Z,82.30
2023-04-25T23:20:40.063Z,82.30
2023-04-25T23:23:42.174Z,82.00
2023-04-25T23:26:45.114Z,82.20
2023-04-25T23:29:55.620Z,82.10
2023-04-25T23:32:57.779Z,82.00
2023-04-25T23:36:00.277Z,81.70
2023-04-25T23:39:04.761Z,81.80
2023-04-25T23:42:06.952Z,82.00
2023-04-25T23:45:10.001Z,81.70
2023-04-25T23:48:12.645Z,82.20
2023-04-25T23:51:15.001Z,82.30
2023-04-25T23:54:17.228Z,82.00
2023-04-25T23:57:19.362Z,82.00
